sensor_id;sensor_type;location;lat;lon;timestamp;P1;durP1;ratioP1;P2;durP2;ratioP2
76073;SDS011;64776;42.636;24.358;2023-02-26T14:58:38;15.90;;;5.50;;
76073;SDS011;64776;42.636;24.358;2023-02-26T15:01:46;15.98;;;7.10;;
76073;SDS011;64776;42.636;24.358;2023-02-26T15:04:53;19.48;;;7.10;;
76073;SDS011;64776;42.636;24.358;2023-02-26T15:08:16;27.65;;;9.65;;
76073;SDS011;64776;42.636;24.358;2023-02-26T15:15:10;21.67;;;6.88;;
76073;SDS011;64776;42.636;24.358;2023-02-26T15:18:25;15.68;;;5.88;;
76073;SDS011;64776;42.636;24.358;2023-02-26T15:21:48;16.33;;;6.78;;
76073;SDS011;64776;42.636;24.358;2023-02-26T15:24:59;18.38;;;7.28;;
76073;SDS011;64776;42.636;24.358;2023-02-26T15:28:02;21.33;;;8.30;;
76073;SDS011;64776;42.636;24.358;2023-02-26T15:31:06;17.95;;;6.25;;
76073;SDS011;64776;42.636;24.358;2023-02-26T15:34:09;19.73;;;8.65;;
76073;SDS011;64776;42.636;24.358;2023-02-26T15:37:15;24.42;;;10.93;;
76073;SDS011;64776;42.636;24.358;2023-02-26T15:40:19;17.20;;;5.55;;
76073;SDS011;64776;42.636;24.358;2023-02-26T15:43:22;15.45;;;5.15;;
76073;SDS011;64776;42.636;24.358;2023-02-26T15:46:26;12.82;;;4.88;;
76073;SDS011;64776;42.636;24.358;2023-02-26T15:49:32;26.85;;;8.25;;
76073;SDS011;64776;42.636;24.358;2023-02-26T15:52:34;17.70;;;6.72;;
76073;SDS011;64776;42.636;24.358;2023-02-26T15:55:36;23.95;;;9.05;;
76073;SDS011;64776;42.636;24.358;2023-02-26T15:58:43;14.38;;;5.78;;
76073;SDS011;64776;42.636;24.358;2023-02-26T16:01:46;45.40;;;18.17;;
76073;SDS011;64776;42.636;24.358;2023-02-26T16:04:48;28.92;;;12.95;;
76073;SDS011;64776;42.636;24.358;2023-02-26T16:07:49;31.92;;;13.40;;
76073;SDS011;64776;42.636;24.358;2023-02-26T16:10:50;23.52;;;9.00;;
76073;SDS011;64776;42.636;24.358;2023-02-26T16:13:54;21.42;;;9.73;;
76073;SDS011;64776;42.636;24.358;2023-02-26T16:16:55;18.17;;;7.88;;
76073;SDS011;64776;42.636;24.358;2023-02-26T16:19:58;22.75;;;8.10;;
76073;SDS011;64776;42.636;24.358;2023-02-26T16:23:03;16.67;;;7.60;;
76073;SDS011;64776;42.636;24.358;2023-02-26T16:26:06;28.85;;;13.00;;
76073;SDS011;64776;42.636;24.358;2023-02-26T16:32:15;14.52;;;7.10;;
76073;SDS011;64776;42.636;24.358;2023-02-26T16:35:18;29.70;;;13.55;;
76073;SDS011;64776;42.636;24.358;2023-02-26T16:38:23;13.35;;;4.15;;
76073;SDS011;64776;42.636;24.358;2023-02-26T16:41:25;10.80;;;4.03;;
76073;SDS011;64776;42.636;24.358;2023-02-26T16:44:48;15.88;;;5.75;;
76073;SDS011;64776;42.636;24.358;2023-02-26T16:47:50;17.85;;;7.25;;
76073;SDS011;64776;42.636;24.358;2023-02-26T16:50:55;18.40;;;6.57;;
76073;SDS011;64776;42.636;24.358;2023-02-26T16:53:59;16.38;;;5.53;;
76073;SDS011;64776;42.636;24.358;2023-02-26T16:57:02;27.13;;;10.50;;
76073;SDS011;64776;42.636;24.358;2023-02-26T17:00:10;20.95;;;9.10;;
76073;SDS011;64776;42.636;24.358;2023-02-26T17:03:15;17.00;;;7.70;;
76073;SDS011;64776;42.636;24.358;2023-02-26T17:06:18;11.02;;;5.13;;
76073;SDS011;64776;42.636;24.358;2023-02-26T17:09:23;24.33;;;10.30;;
76073;SDS011;64776;42.636;24.358;2023-02-26T17:12:39;53.72;;;24.27;;
76073;SDS011;64776;42.636;24.358;2023-02-26T17:15:45;12.80;;;5.57;;
76073;SDS011;64776;42.636;24.358;2023-02-26T17:18:46;23.75;;;8.43;;
76073;SDS011;64776;42.636;24.358;2023-02-26T17:21:47;24.60;;;10.38;;
76073;SDS011;64776;42.636;24.358;2023-02-26T17:24:51;23.88;;;7.28;;
76073;SDS011;64776;42.636;24.358;2023-02-26T17:27:52;19.77;;;6.60;;
76073;SDS011;64776;42.636;24.358;2023-02-26T17:30:55;18.55;;;7.45;;
76073;SDS011;64776;42.636;24.358;2023-02-26T17:33:56;21.55;;;9.50;;
76073;SDS011;64776;42.636;24.358;2023-02-26T17:36:57;37.22;;;15.63;;
76073;SDS011;64776;42.636;24.358;2023-02-26T17:39:58;32.95;;;14.15;;
76073;SDS011;64776;42.636;24.358;2023-02-26T17:42:59;15.00;;;6.38;;
76073;SDS011;64776;42.636;24.358;2023-02-26T17:46:01;20.25;;;7.47;;
76073;SDS011;64776;42.636;24.358;2023-02-26T17:49:02;22.10;;;8.65;;
76073;SDS011;64776;42.636;24.358;2023-02-26T17:52:03;17.30;;;5.97;;
76073;SDS011;64776;42.636;24.358;2023-02-26T17:55:04;21.92;;;9.10;;
76073;SDS011;64776;42.636;24.358;2023-02-26T17:58:06;19.23;;;5.78;;
76073;SDS011;64776;42.636;24.358;2023-02-26T18:01:13;22.02;;;8.85;;
76073;SDS011;64776;42.636;24.358;2023-02-26T18:04:14;16.38;;;6.97;;
76073;SDS011;64776;42.636;24.358;2023-02-26T18:07:15;19.00;;;6.53;;
76073;SDS011;64776;42.636;24.358;2023-02-26T18:10:18;13.25;;;4.75;;
76073;SDS011;64776;42.636;24.358;2023-02-26T18:13:21;16.83;;;7.13;;
76073;SDS011;64776;42.636;24.358;2023-02-26T18:16:25;17.90;;;7.93;;
76073;SDS011;64776;42.636;24.358;2023-02-26T18:19:28;23.27;;;9.45;;
76073;SDS011;64776;42.636;24.358;2023-02-26T18:22:29;11.35;;;4.55;;
76073;SDS011;64776;42.636;24.358;2023-02-26T18:25:30;9.52;;;3.80;;
76073;SDS011;64776;42.636;24.358;2023-02-26T18:28:31;13.07;;;3.33;;
76073;SDS011;64776;42.636;24.358;2023-02-26T18:31:34;12.32;;;4.70;;
76073;SDS011;64776;42.636;24.358;2023-02-26T18:34:35;17.75;;;6.57;;
76073;SDS011;64776;42.636;24.358;2023-02-26T18:37:36;14.75;;;5.53;;
76073;SDS011;64776;42.636;24.358;2023-02-26T18:40:36;23.27;;;6.40;;
76073;SDS011;64776;42.636;24.358;2023-02-26T18:43:37;16.83;;;6.00;;
76073;SDS011;64776;42.636;24.358;2023-02-26T18:46:40;25.42;;;9.10;;
76073;SDS011;64776;42.636;24.358;2023-02-26T18:49:41;28.05;;;10.43;;
76073;SDS011;64776;42.636;24.358;2023-02-26T18:52:42;20.90;;;8.50;;
76073;SDS011;64776;42.636;24.358;2023-02-26T18:55:43;31.95;;;13.82;;
76073;SDS011;64776;42.636;24.358;2023-02-26T18:58:44;32.83;;;8.27;;
76073;SDS011;64776;42.636;24.358;2023-02-26T19:01:46;18.40;;;7.43;;
76073;SDS011;64776;42.636;24.358;2023-02-26T19:04:47;14.57;;;6.22;;
76073;SDS011;64776;42.636;24.358;2023-02-26T19:07:48;12.20;;;4.30;;
76073;SDS011;64776;42.636;24.358;2023-02-26T19:10:49;10.50;;;4.53;;
76073;SDS011;64776;42.636;24.358;2023-02-26T19:13:50;11.88;;;4.75;;
76073;SDS011;64776;42.636;24.358;2023-02-26T19:16:52;9.15;;;3.22;;
76073;SDS011;64776;42.636;24.358;2023-02-26T19:19:53;13.80;;;5.13;;
76073;SDS011;64776;42.636;24.358;2023-02-26T19:22:54;12.10;;;3.85;;
76073;SDS011;64776;42.636;24.358;2023-02-26T19:25:55;11.73;;;3.97;;
76073;SDS011;64776;42.636;24.358;2023-02-26T19:28:55;9.15;;;2.38;;
76073;SDS011;64776;42.636;24.358;2023-02-26T19:31:58;10.02;;;2.53;;
76073;SDS011;64776;42.636;24.358;2023-02-26T19:34:59;12.60;;;3.10;;
76073;SDS011;64776;42.636;24.358;2023-02-26T19:37:59;16.15;;;3.40;;
76073;SDS011;64776;42.636;24.358;2023-02-26T19:41:00;10.30;;;2.67;;
76073;SDS011;64776;42.636;24.358;2023-02-26T19:44:01;16.70;;;4.05;;
76073;SDS011;64776;42.636;24.358;2023-02-26T19:47:03;10.68;;;3.83;;
76073;SDS011;64776;42.636;24.358;2023-02-26T19:50:05;9.27;;;2.58;;
76073;SDS011;64776;42.636;24.358;2023-02-26T19:53:07;8.52;;;4.07;;
76073;SDS011;64776;42.636;24.358;2023-02-26T19:56:08;22.55;;;5.07;;
76073;SDS011;64776;42.636;24.358;2023-02-26T19:59:09;11.25;;;5.07;;
76073;SDS011;64776;42.636;24.358;2023-02-26T20:02:11;14.18;;;4.22;;
76073;SDS011;64776;42.636;24.358;2023-02-26T20:05:12;17.90;;;5.68;;
76073;SDS011;64776;42.636;24.358;2023-02-26T20:08:13;17.30;;;4.53;;
76073;SDS011;64776;42.636;24.358;2023-02-26T20:11:14;11.43;;;3.25;;
76073;SDS011;64776;42.636;24.358;2023-02-26T20:14:14;12.43;;;4.32;;
76073;SDS011;64776;42.636;24.358;2023-02-26T20:17:17;14.20;;;4.13;;
76073;SDS011;64776;42.636;24.358;2023-02-26T20:20:17;15.32;;;5.15;;
76073;SDS011;64776;42.636;24.358;2023-02-26T20:23:18;14.75;;;3.50;;
76073;SDS011;64776;42.636;24.358;2023-02-26T20:26:19;11.52;;;3.20;;
76073;SDS011;64776;42.636;24.358;2023-02-26T20:29:20;12.18;;;4.50;;
76073;SDS011;64776;42.636;24.358;2023-02-26T20:32:22;15.40;;;4.68;;
76073;SDS011;64776;42.636;24.358;2023-02-26T20:35:23;13.65;;;3.88;;
76073;SDS011;64776;42.636;24.358;2023-02-26T20:38:24;14.43;;;5.60;;
76073;SDS011;64776;42.636;24.358;2023-02-26T20:41:25;17.92;;;5.00;;
76073;SDS011;64776;42.636;24.358;2023-02-26T20:44:26;20.90;;;5.70;;
76073;SDS011;64776;42.636;24.358;2023-02-26T20:47:28;22.73;;;5.43;;
76073;SDS011;64776;42.636;24.358;2023-02-26T20:50:29;28.52;;;9.35;;
76073;SDS011;64776;42.636;24.358;2023-02-26T20:53:30;20.83;;;5.93;;
76073;SDS011;64776;42.636;24.358;2023-02-26T20:56:31;21.85;;;6.00;;
76073;SDS011;64776;42.636;24.358;2023-02-26T20:59:32;27.45;;;7.15;;
76073;SDS011;64776;42.636;24.358;2023-02-26T21:02:34;25.55;;;7.93;;
76073;SDS011;64776;42.636;24.358;2023-02-26T21:05:35;24.27;;;6.65;;
76073;SDS011;64776;42.636;24.358;2023-02-26T21:08:36;27.13;;;6.70;;
76073;SDS011;64776;42.636;24.358;2023-02-26T21:11:37;20.02;;;6.60;;
76073;SDS011;64776;42.636;24.358;2023-02-26T21:14:38;22.98;;;6.78;;
76073;SDS011;64776;42.636;24.358;2023-02-26T21:17:41;21.60;;;6.13;;
76073;SDS011;64776;42.636;24.358;2023-02-26T21:20:42;19.08;;;5.05;;
76073;SDS011;64776;42.636;24.358;2023-02-26T21:23:43;22.02;;;8.43;;
76073;SDS011;64776;42.636;24.358;2023-02-26T21:26:43;55.17;;;17.10;;
76073;SDS011;64776;42.636;24.358;2023-02-26T21:29:44;35.28;;;11.40;;
76073;SDS011;64776;42.636;24.358;2023-02-26T21:32:46;38.80;;;14.43;;
76073;SDS011;64776;42.636;24.358;2023-02-26T21:35:48;32.88;;;14.80;;
76073;SDS011;64776;42.636;24.358;2023-02-26T21:38:49;34.90;;;13.32;;
76073;SDS011;64776;42.636;24.358;2023-02-26T21:41:49;32.83;;;12.52;;
76073;SDS011;64776;42.636;24.358;2023-02-26T21:44:50;24.05;;;8.63;;
76073;SDS011;64776;42.636;24.358;2023-02-26T21:47:52;13.02;;;4.85;;
76073;SDS011;64776;42.636;24.358;2023-02-26T21:50:53;21.40;;;7.18;;
76073;SDS011;64776;42.636;24.358;2023-02-26T21:53:54;19.63;;;7.30;;
76073;SDS011;64776;42.636;24.358;2023-02-26T21:56:55;26.55;;;11.10;;
76073;SDS011;64776;42.636;24.358;2023-02-26T21:59:56;25.13;;;10.55;;
76073;SDS011;64776;42.636;24.358;2023-02-26T22:02:58;21.13;;;7.93;;
76073;SDS011;64776;42.636;24.358;2023-02-26T22:05:59;27.38;;;10.52;;
76073;SDS011;64776;42.636;24.358;2023-02-26T22:09:00;43.08;;;22.35;;
76073;SDS011;64776;42.636;24.358;2023-02-26T22:12:01;37.45;;;16.88;;
76073;SDS011;64776;42.636;24.358;2023-02-26T22:15:02;38.25;;;15.68;;
76073;SDS011;64776;42.636;24.358;2023-02-26T22:18:04;47.78;;;16.63;;
76073;SDS011;64776;42.636;24.358;2023-02-26T22:21:05;30.58;;;12.05;;
76073;SDS011;64776;42.636;24.358;2023-02-26T22:24:06;35.75;;;12.45;;
76073;SDS011;64776;42.636;24.358;2023-02-26T22:27:07;57.58;;;23.23;;
76073;SDS011;64776;42.636;24.358;2023-02-26T22:30:09;31.30;;;12.43;;
76073;SDS011;64776;42.636;24.358;2023-02-26T22:33:12;41.35;;;11.43;;
76073;SDS011;64776;42.636;24.358;2023-02-26T22:36:13;31.05;;;9.77;;
76073;SDS011;64776;42.636;24.358;2023-02-26T22:39:14;27.05;;;7.93;;
76073;SDS011;64776;42.636;24.358;2023-02-26T22:42:14;23.50;;;9.25;;
76073;SDS011;64776;42.636;24.358;2023-02-26T22:45:15;51.45;;;17.60;;
76073;SDS011;64776;42.636;24.358;2023-02-26T22:48:18;52.00;;;18.17;;
76073;SDS011;64776;42.636;24.358;2023-02-26T22:51:19;72.20;;;22.33;;
76073;SDS011;64776;42.636;24.358;2023-02-26T22:54:20;59.60;;;19.38;;
76073;SDS011;64776;42.636;24.358;2023-02-26T22:57:20;46.58;;;15.88;;
76073;SDS011;64776;42.636;24.358;2023-02-26T23:00:21;36.60;;;13.48;;
76073;SDS011;64776;42.636;24.358;2023-02-26T23:03:23;47.40;;;21.10;;
76073;SDS011;64776;42.636;24.358;2023-02-26T23:06:24;72.90;;;31.75;;
76073;SDS011;64776;42.636;24.358;2023-02-26T23:09:25;39.10;;;15.13;;
76073;SDS011;64776;42.636;24.358;2023-02-26T23:12:26;38.55;;;16.17;;
76073;SDS011;64776;42.636;24.358;2023-02-26T23:15:27;29.23;;;11.00;;
76073;SDS011;64776;42.636;24.358;2023-02-26T23:18:29;34.10;;;12.23;;
76073;SDS011;64776;42.636;24.358;2023-02-26T23:21:30;51.17;;;22.33;;
76073;SDS011;64776;42.636;24.358;2023-02-26T23:24:31;88.30;;;40.72;;
76073;SDS011;64776;42.636;24.358;2023-02-26T23:27:32;48.25;;;19.55;;
76073;SDS011;64776;42.636;24.358;2023-02-26T23:30:33;40.30;;;12.15;;
76073;SDS011;64776;42.636;24.358;2023-02-26T23:33:35;32.17;;;10.48;;
76073;SDS011;64776;42.636;24.358;2023-02-26T23:36:36;25.40;;;10.20;;
76073;SDS011;64776;42.636;24.358;2023-02-26T23:39:36;22.17;;;8.38;;
76073;SDS011;64776;42.636;24.358;2023-02-26T23:42:37;21.98;;;7.07;;
76073;SDS011;64776;42.636;24.358;2023-02-26T23:45:38;22.73;;;6.82;;
76073;SDS011;64776;42.636;24.358;2023-02-26T23:48:40;18.33;;;6.55;;
76073;SDS011;64776;42.636;24.358;2023-02-26T23:51:41;22.35;;;7.13;;
76073;SDS011;64776;42.636;24.358;2023-02-26T23:54:42;19.35;;;4.13;;
76073;SDS011;64776;42.636;24.358;2023-02-26T23:57:43;15.52;;;4.47;;
